createdAt,value
2018-11-29T00:00:18.060Z,4.00
2018-11-29T00:01:18.040Z,4.00
2018-11-29T00:02:18.076Z,4.00
2018-11-29T00:03:17.996Z,4.00
2018-11-29T00:04:17.961Z,4.00
2018-11-29T00:05:17.943Z,4.00
2018-11-29T00:06:17.947Z,4.00
2018-11-29T00:07:18.530Z,4.00
2018-11-29T00:08:17.869Z,4.00
2018-11-29T00:09:17.851Z,4.00
2018-11-29T00:10:17.834Z,4.00
2018-11-29T00:11:17.849Z,4.00
2018-11-29T00:12:17.880Z,4.00
2018-11-29T00:13:17.771Z,4.00
2018-11-29T00:14:17.762Z,4.00
2018-11-29T00:15:17.803Z,4.00
2018-11-29T00:16:17.851Z,4.00
2018-11-29T00:17:17.844Z,4.00
2018-11-29T00:18:17.864Z,4.00
2018-11-29T00:19:17.713Z,4.00
2018-11-29T00:20:17.577Z,4.00
2018-11-29T00:21:17.544Z,4.00
2018-11-29T00:22:17.874Z,4.00
2018-11-29T00:23:17.542Z,4.00
2018-11-29T00:24:17.592Z,4.00
2018-11-29T00:25:17.466Z,4.00
2018-11-29T00:26:17.423Z,4.00
2018-11-29T00:27:17.401Z,4.00
2018-11-29T00:28:17.474Z,4.00
2018-11-29T00:29:17.424Z,4.00
2018-11-29T00:30:17.538Z,4.00
2018-11-29T00:31:17.293Z,4.00
2018-11-29T00:32:17.279Z,4.00
2018-11-29T00:33:17.330Z,4.00
2018-11-29T00:34:17.333Z,4.00
2018-11-29T00:35:17.232Z,4.00
2018-11-29T00:36:17.180Z,4.00
2018-11-29T00:37:17.224Z,8.00
2018-11-29T00:38:17.156Z,4.00
2018-11-29T00:39:17.230Z,4.00
2018-11-29T00:40:17.096Z,4.00
2018-11-29T00:41:17.050Z,4.00
2018-11-29T00:42:17.087Z,4.00
2018-11-29T00:43:16.962Z,4.00
2018-11-29T00:44:17.104Z,4.00
2018-11-29T00:45:18.870Z,4.00
2018-11-29T00:46:18.795Z,4.00
2018-11-29T00:47:18.490Z,4.00
2018-11-29T00:48:18.670Z,4.00
2018-11-29T00:49:19.750Z,4.00
2018-11-29T00:50:16.908Z,4.00
2018-11-29T00:51:17.026Z,4.00
2018-11-29T00:52:16.814Z,4.00
2018-11-29T00:53:16.829Z,4.00
2018-11-29T00:54:16.753Z,4.00
2018-11-29T00:55:17.965Z,4.00
2018-11-29T00:56:16.719Z,4.00
2018-11-29T00:57:16.652Z,4.00
2018-11-29T00:58:17.208Z,4.00
2018-11-29T00:59:16.790Z,4.00
2018-11-29T01:00:16.761Z,4.00
2018-11-29T01:01:16.558Z,4.00
2018-11-29T01:02:16.635Z,8.00
2018-11-29T01:03:16.651Z,4.00
2018-11-29T01:04:16.498Z,4.00
2018-11-29T01:05:16.512Z,4.00
2018-11-29T01:06:16.549Z,4.00
2018-11-29T01:07:16.414Z,4.00
2018-11-29T01:08:16.439Z,4.00
2018-11-29T01:09:16.354Z,4.00
2018-11-29T01:10:16.399Z,4.00
2018-11-29T01:11:16.395Z,4.00
2018-11-29T01:12:16.414Z,4.00
2018-11-29T01:13:16.350Z,4.00
2018-11-29T01:14:16.238Z,4.00
2018-11-29T01:15:16.191Z,4.00
2018-11-29T01:16:16.181Z,4.00
2018-11-29T01:17:16.247Z,4.00
2018-11-29T01:18:16.211Z,4.00
2018-11-29T01:19:16.257Z,4.00
2018-11-29T01:20:16.077Z,4.00
2018-11-29T01:21:16.486Z,4.00
2018-11-29T01:22:16.570Z,4.00
2018-11-29T01:23:15.997Z,4.00
2018-11-29T01:24:16.545Z,4.00
2018-11-29T01:25:16.165Z,4.00
2018-11-29T01:26:15.949Z,4.00
2018-11-29T01:27:16.053Z,4.00
2018-11-29T01:28:15.871Z,4.00
2018-11-29T01:29:15.940Z,4.00
2018-11-29T01:30:15.863Z,4.00
2018-11-29T01:31:15.810Z,4.00
2018-11-29T01:32:15.893Z,4.00
2018-11-29T01:33:15.770Z,4.00
2018-11-29T01:34:15.841Z,4.00
2018-11-29T01:35:15.763Z,4.00
2018-11-29T01:36:15.696Z,4.00
2018-11-29T01:37:15.780Z,4.00
2018-11-29T01:38:15.646Z,4.00
2018-11-29T01:39:15.651Z,4.00
2018-11-29T01:40:15.673Z,4.00
2018-11-29T01:41:15.578Z,4.00
2018-11-29T01:42:15.614Z,4.00
2018-11-29T01:43:15.547Z,4.00
2018-11-29T01:44:15.480Z,4.00
2018-11-29T01:45:15.465Z,4.00
2018-11-29T01:46:15.455Z,4.00
2018-11-29T01:47:15.414Z,4.00
2018-11-29T01:48:15.530Z,4.00
2018-11-29T01:49:15.377Z,4.00
2018-11-29T01:50:15.342Z,4.00
2018-11-29T01:51:15.838Z,4.00
2018-11-29T01:52:15.278Z,4.00
2018-11-29T01:53:15.268Z,4.00
2018-11-29T01:54:15.380Z,4.00
2018-11-29T01:55:15.238Z,4.00
2018-11-29T01:56:15.189Z,4.00
2018-11-29T01:57:15.227Z,4.00
2018-11-29T01:58:15.137Z,4.00
2018-11-29T01:59:15.220Z,4.00
2018-11-29T02:00:15.101Z,4.00
2018-11-29T02:01:15.011Z,4.00
2018-11-29T02:02:15.044Z,4.00
2018-11-29T02:03:15.101Z,4.00
2018-11-29T02:04:15.105Z,4.00
2018-11-29T02:05:14.968Z,4.00
2018-11-29T02:06:14.924Z,4.00
2018-11-29T02:07:14.925Z,4.00
2018-11-29T02:08:15.200Z,0.00
2018-11-29T02:09:14.960Z,0.00
2018-11-29T02:10:14.925Z,0.00
2018-11-29T02:11:14.847Z,0.00
2018-11-29T02:12:14.786Z,0.00
2018-11-29T02:13:14.781Z,0.00
2018-11-29T02:14:14.908Z,0.00
2018-11-29T02:15:14.757Z,0.00
2018-11-29T02:16:14.698Z,0.00
2018-11-29T02:17:14.747Z,0.00
2018-11-29T02:18:14.673Z,0.00
2018-11-29T02:19:14.612Z,0.00
2018-11-29T02:20:14.669Z,0.00
2018-11-29T02:21:14.556Z,0.00
2018-11-29T02:22:14.535Z,0.00
2018-11-29T02:23:14.513Z,0.00
2018-11-29T02:24:14.503Z,0.00
2018-11-29T02:25:14.454Z,0.00
2018-11-29T02:26:14.523Z,4.00
2018-11-29T02:27:14.393Z,0.00
2018-11-29T02:28:14.361Z,0.00
2018-11-29T02:29:14.390Z,0.00
2018-11-29T02:30:14.338Z,0.00
2018-11-29T02:31:14.376Z,0.00
2018-11-29T02:32:14.383Z,0.00
2018-11-29T02:33:14.266Z,0.00
2018-11-29T02:34:14.233Z,0.00
2018-11-29T02:35:14.249Z,0.00
2018-11-29T02:36:14.178Z,8.00
2018-11-29T02:37:14.347Z,8.00
2018-11-29T02:38:14.170Z,4.00
2018-11-29T02:39:14.168Z,4.00
2018-11-29T02:40:15.900Z,0.00
2018-11-29T02:41:15.975Z,0.00
2018-11-29T02:42:17.193Z,0.00
2018-11-29T02:43:13.988Z,0.00
2018-11-29T02:44:14.041Z,0.00
2018-11-29T02:45:13.949Z,0.00
2018-11-29T02:46:13.989Z,0.00
2018-11-29T02:47:13.952Z,0.00
2018-11-29T02:48:13.982Z,0.00
2018-11-29T02:49:13.828Z,0.00
2018-11-29T02:50:13.871Z,0.00
2018-11-29T02:51:13.863Z,0.00
2018-11-29T02:52:13.780Z,0.00
2018-11-29T02:53:13.800Z,0.00
2018-11-29T02:54:13.894Z,0.00
2018-11-29T02:55:13.876Z,0.00
2018-11-29T02:56:13.712Z,0.00
2018-11-29T02:57:13.728Z,0.00
2018-11-29T02:58:13.651Z,0.00
2018-11-29T02:59:13.723Z,0.00
2018-11-29T03:00:13.574Z,0.00
2018-11-29T03:01:13.709Z,0.00
2018-11-29T03:02:13.530Z,0.00
2018-11-29T03:03:13.493Z,0.00
2018-11-29T03:04:13.498Z,0.00
2018-11-29T03:05:13.678Z,0.00
2018-11-29T03:06:13.406Z,0.00
2018-11-29T03:07:13.399Z,0.00
2018-11-29T03:08:13.387Z,0.00
2018-11-29T03:09:13.383Z,0.00
2018-11-29T03:10:13.329Z,0.00
2018-11-29T03:11:13.396Z,0.00
2018-11-29T03:12:13.307Z,0.00
2018-11-29T03:13:13.308Z,0.00
2018-11-29T03:14:13.210Z,0.00
2018-11-29T03:15:13.185Z,0.00
2018-11-29T03:16:13.812Z,0.00
2018-11-29T03:17:13.126Z,0.00
2018-11-29T03:18:13.108Z,0.00
2018-11-29T03:19:13.114Z,0.00
2018-11-29T03:20:13.086Z,0.00
2018-11-29T03:21:13.188Z,0.00
2018-11-29T03:22:13.114Z,0.00
2018-11-29T03:23:12.996Z,0.00
2018-11-29T03:24:12.992Z,0.00
2018-11-29T03:25:12.952Z,0.00
2018-11-29T03:26:13.080Z,0.00
2018-11-29T03:27:12.989Z,0.00
2018-11-29T03:28:12.997Z,0.00
2018-11-29T03:29:12.958Z,0.00
2018-11-29T03:30:12.986Z,0.00
2018-11-29T03:31:12.978Z,0.00
2018-11-29T03:32:12.848Z,0.00
2018-11-29T03:33:12.833Z,0.00
2018-11-29T03:34:12.772Z,0.00
2018-11-29T03:35:12.757Z,0.00
2018-11-29T03:36:12.902Z,0.00
2018-11-29T03:37:12.869Z,0.00
2018-11-29T03:38:12.714Z,0.00
2018-11-29T03:39:12.683Z,0.00
2018-11-29T03:40:12.688Z,0.00
2018-11-29T03:41:12.543Z,0.00
2018-11-29T03:42:12.666Z,0.00
2018-11-29T03:43:12.475Z,0.00
2018-11-29T03:44:12.469Z,0.00
2018-11-29T03:45:12.438Z,0.00
2018-11-29T03:46:12.506Z,0.00
2018-11-29T03:47:12.515Z,0.00
2018-11-29T03:48:12.579Z,0.00
2018-11-29T03:49:12.414Z,0.00
2018-11-29T03:50:12.405Z,0.00
2018-11-29T03:51:12.406Z,0.00
2018-11-29T03:52:12.413Z,0.00
2018-11-29T03:53:12.335Z,0.00
2018-11-29T03:54:12.424Z,0.00
2018-11-29T03:55:12.316Z,0.00
2018-11-29T03:56:12.329Z,0.00
2018-11-29T03:57:12.167Z,0.00
2018-11-29T03:58:12.251Z,0.00
2018-11-29T03:59:12.249Z,0.00
2018-11-29T04:00:12.217Z,0.00
2018-11-29T04:01:12.157Z,0.00
2018-11-29T04:02:12.139Z,0.00
2018-11-29T04:03:12.040Z,0.00
2018-11-29T04:04:12.063Z,0.00
2018-11-29T04:05:12.013Z,0.00
2018-11-29T04:06:11.963Z,0.00
2018-11-29T04:07:11.992Z,0.00
2018-11-29T04:08:11.914Z,0.00
2018-11-29T04:09:11.844Z,0.00
2018-11-29T04:10:11.938Z,0.00
2018-11-29T04:11:11.874Z,0.00
2018-11-29T04:12:11.880Z,0.00
2018-11-29T04:13:11.831Z,0.00
2018-11-29T04:14:11.835Z,0.00
2018-11-29T04:15:11.853Z,0.00
2018-11-29T04:16:11.879Z,0.00
2018-11-29T04:17:11.725Z,0.00
2018-11-29T04:18:11.775Z,0.00
2018-11-29T04:19:11.747Z,0.00
2018-11-29T04:20:11.746Z,0.00
2018-11-29T04:21:11.869Z,0.00
2018-11-29T04:22:11.734Z,0.00
2018-11-29T04:23:11.653Z,0.00
2018-11-29T04:24:11.496Z,0.00
2018-11-29T04:25:11.525Z,0.00
2018-11-29T04:26:11.536Z,0.00
2018-11-29T04:27:11.629Z,0.00
2018-11-29T04:28:11.531Z,0.00
2018-11-29T04:29:11.436Z,0.00
2018-11-29T04:30:11.430Z,0.00
2018-11-29T04:31:11.416Z,0.00
2018-11-29T04:32:11.372Z,0.00
2018-11-29T04:33:11.426Z,0.00
2018-11-29T04:34:11.311Z,0.00
2018-11-29T04:35:11.246Z,0.00
2018-11-29T04:36:11.353Z,0.00
2018-11-29T04:37:11.215Z,0.00
2018-11-29T04:38:11.387Z,0.00
2018-11-29T04:39:11.196Z,0.00
2018-11-29T04:40:11.127Z,0.00
2018-11-29T04:41:11.011Z,0.00
2018-11-29T04:42:11.095Z,0.00
2018-11-29T04:43:11.088Z,0.00
2018-11-29T04:44:10.946Z,0.00
2018-11-29T04:45:10.959Z,0.00
2018-11-29T04:46:10.892Z,0.00
2018-11-29T04:47:10.875Z,0.00
2018-11-29T04:48:10.851Z,0.00
2018-11-29T04:49:10.952Z,0.00
2018-11-29T04:50:10.801Z,0.00
2018-11-29T04:51:10.767Z,0.00
2018-11-29T04:52:10.737Z,0.00
2018-11-29T04:53:10.714Z,0.00
2018-11-29T04:54:10.803Z,0.00
2018-11-29T04:55:10.778Z,0.00
2018-11-29T04:56:10.789Z,0.00
2018-11-29T04:57:10.713Z,0.00
2018-11-29T04:58:10.763Z,0.00
2018-11-29T04:59:10.883Z,0.00
2018-11-29T05:00:10.647Z,0.00
2018-11-29T05:01:10.650Z,0.00
2018-11-29T05:02:11.901Z,0.00
2018-11-29T05:03:10.586Z,0.00
2018-11-29T05:04:10.625Z,0.00
2018-11-29T05:05:10.769Z,0.00
2018-11-29T05:06:10.487Z,0.00
2018-11-29T05:07:10.491Z,0.00
2018-11-29T05:08:10.384Z,0.00
2018-11-29T05:09:10.431Z,0.00
2018-11-29T05:10:10.512Z,0.00
2018-11-29T05:11:10.566Z,0.00
2018-11-29T05:12:10.303Z,0.00
2018-11-29T05:13:10.356Z,0.00
2018-11-29T05:14:10.286Z,0.00
2018-11-29T05:15:10.265Z,0.00
2018-11-29T05:16:10.465Z,0.00
2018-11-29T05:17:10.244Z,0.00
2018-11-29T05:18:10.245Z,0.00
2018-11-29T05:19:10.166Z,0.00
2018-11-29T05:20:10.148Z,0.00
2018-11-29T05:21:10.212Z,0.00
2018-11-29T05:22:10.119Z,0.00
2018-11-29T05:23:09.969Z,0.00
2018-11-29T05:24:09.937Z,0.00
2018-11-29T05:25:09.924Z,0.00
2018-11-29T05:26:10.020Z,0.00
2018-11-29T05:27:09.962Z,0.00
2018-11-29T05:28:09.842Z,0.00
2018-11-29T05:29:09.863Z,0.00
2018-11-29T05:30:09.796Z,0.00
2018-11-29T05:31:09.780Z,0.00
2018-11-29T05:32:09.833Z,0.00
2018-11-29T05:33:09.728Z,0.00
2018-11-29T05:34:09.697Z,0.00
2018-11-29T05:35:09.671Z,0.00
2018-11-29T05:36:09.632Z,0.00
2018-11-29T05:37:09.736Z,0.00
2018-11-29T05:38:09.593Z,0.00
2018-11-29T05:39:09.557Z,0.00
2018-11-29T05:40:10.815Z,0.00
2018-11-29T05:41:09.624Z,0.00
2018-11-29T05:42:12.122Z,0.00
2018-11-29T05:43:09.468Z,0.00
2018-11-29T05:44:09.433Z,0.00
2018-11-29T05:45:09.413Z,0.00
2018-11-29T05:46:09.386Z,0.00
2018-11-29T05:47:09.374Z,0.00
2018-11-29T05:48:09.450Z,0.00
2018-11-29T05:49:09.309Z,0.00
2018-11-29T05:50:09.278Z,0.00
2018-11-29T05:51:09.271Z,0.00
2018-11-29T05:52:09.229Z,0.00
2018-11-29T05:53:09.304Z,0.00
2018-11-29T05:54:09.192Z,0.00
2018-11-29T05:55:09.157Z,0.00
2018-11-29T05:56:09.182Z,0.00
2018-11-29T05:57:09.108Z,0.00
2018-11-29T05:58:09.103Z,0.00
2018-11-29T05:59:09.192Z,0.00
2018-11-29T06:00:09.040Z,0.00
2018-11-29T06:01:09.002Z,0.00
2018-11-29T06:02:08.988Z,0.00
2018-11-29T06:03:08.974Z,0.00
2018-11-29T06:04:09.029Z,0.00
2018-11-29T06:05:08.924Z,0.00
2018-11-29T06:06:08.888Z,0.00
2018-11-29T06:07:08.880Z,0.00
2018-11-29T06:08:08.828Z,0.00
2018-11-29T06:09:08.902Z,0.00
2018-11-29T06:10:08.773Z,0.00
2018-11-29T06:11:08.760Z,0.00
2018-11-29T06:12:08.777Z,0.00
2018-11-29T06:13:08.694Z,0.00
2018-11-29T06:14:08.778Z,0.00
2018-11-29T06:15:08.676Z,0.00
2018-11-29T06:16:08.641Z,0.00
2018-11-29T06:17:08.596Z,0.00
2018-11-29T06:18:08.623Z,0.00
2018-11-29T06:19:08.650Z,0.00
2018-11-29T06:20:08.532Z,0.00
2018-11-29T06:21:08.518Z,0.00
2018-11-29T06:22:08.473Z,0.00
2018-11-29T06:23:08.464Z,0.00
2018-11-29T06:24:13.447Z,0.00
2018-11-29T06:25:08.521Z,0.00
2018-11-29T06:26:08.367Z,0.00
2018-11-29T06:27:08.353Z,0.00
2018-11-29T06:28:08.340Z,0.00
2018-11-29T06:29:08.303Z,0.00
2018-11-29T06:30:08.277Z,0.00
2018-11-29T06:31:08.354Z,0.00
2018-11-29T06:32:08.226Z,0.00
2018-11-29T06:33:08.195Z,0.00
2018-11-29T06:34:08.190Z,0.00
2018-11-29T06:35:08.139Z,0.00
2018-11-29T06:36:08.132Z,0.00
2018-11-29T06:37:08.217Z,0.00
2018-11-29T06:38:08.094Z,0.00
2018-11-29T06:39:08.069Z,0.00
2018-11-29T06:40:08.019Z,0.00
2018-11-29T06:41:08.017Z,0.00
2018-11-29T06:42:08.118Z,0.00
2018-11-29T06:43:07.954Z,0.00
2018-11-29T06:44:07.920Z,0.00
2018-11-29T06:45:07.898Z,0.00
2018-11-29T06:46:07.874Z,0.00
2018-11-29T06:47:07.949Z,0.00
2018-11-29T06:48:07.811Z,0.00
2018-11-29T06:49:07.794Z,0.00
2018-11-29T06:50:07.799Z,0.00
2018-11-29T06:51:07.733Z,0.00
2018-11-29T06:52:07.825Z,0.00
2018-11-29T06:53:07.694Z,0.00
2018-11-29T06:54:07.669Z,0.00
2018-11-29T06:55:07.690Z,0.00
2018-11-29T06:56:07.633Z,0.00
2018-11-29T06:57:07.715Z,0.00
2018-11-29T06:58:07.576Z,0.00
2018-11-29T06:59:07.534Z,0.00
2018-11-29T07:00:07.522Z,0.00
2018-11-29T07:01:07.488Z,0.00
2018-11-29T07:02:07.483Z,0.00
2018-11-29T07:03:07.536Z,0.00
2018-11-29T07:04:07.440Z,0.00
2018-11-29T07:05:07.387Z,0.00
2018-11-29T07:06:07.360Z,0.00
2018-11-29T07:07:07.332Z,0.00
2018-11-29T07:08:07.308Z,0.00
2018-11-29T07:09:07.394Z,0.00
2018-11-29T07:10:07.281Z,0.00
2018-11-29T07:11:07.292Z,0.00
2018-11-29T07:12:07.293Z,0.00
2018-11-29T07:13:07.176Z,0.00
2018-11-29T07:14:07.192Z,0.00
2018-11-29T07:15:07.243Z,0.00
2018-11-29T07:16:07.114Z,0.00
2018-11-29T07:17:07.090Z,0.00
2018-11-29T07:18:07.051Z,0.00
2018-11-29T07:19:07.031Z,0.00
2018-11-29T07:20:07.102Z,0.00
2018-11-29T07:21:06.981Z,0.00
2018-11-29T07:22:06.961Z,0.00
2018-11-29T07:23:06.960Z,0.00
2018-11-29T07:24:06.938Z,0.00
2018-11-29T07:25:07.031Z,0.00
2018-11-29T07:26:06.854Z,0.00
2018-11-29T07:27:06.960Z,0.00
2018-11-29T07:28:06.830Z,0.00
2018-11-29T07:29:06.789Z,0.00
2018-11-29T07:30:06.880Z,0.00
2018-11-29T07:31:06.726Z,0.00
2018-11-29T07:32:06.691Z,0.00
2018-11-29T07:33:06.706Z,0.00
2018-11-29T07:34:06.933Z,0.00
2018-11-29T07:35:06.731Z,0.00
2018-11-29T07:36:06.618Z,0.00
2018-11-29T07:37:06.570Z,0.00
2018-11-29T07:38:06.566Z,0.00
2018-11-29T07:39:06.574Z,0.00
2018-11-29T07:40:06.639Z,0.00
2018-11-29T07:41:06.494Z,0.00
2018-11-29T07:42:06.457Z,0.00
2018-11-29T07:43:06.446Z,0.00
2018-11-29T07:44:06.444Z,0.00
2018-11-29T07:45:06.367Z,0.00
2018-11-29T07:46:06.469Z,0.00
2018-11-29T07:47:06.328Z,0.00
2018-11-29T07:48:06.374Z,0.00
2018-11-29T07:49:06.314Z,0.00
2018-11-29T07:50:06.255Z,0.00
2018-11-29T07:51:06.225Z,0.00
2018-11-29T07:52:06.317Z,0.00
2018-11-29T07:53:06.169Z,0.00
2018-11-29T07:54:06.155Z,0.00
2018-11-29T07:55:06.127Z,0.00
2018-11-29T07:56:06.098Z,0.00
2018-11-29T07:57:06.163Z,0.00
2018-11-29T07:58:06.046Z,0.00
2018-11-29T07:59:06.033Z,0.00
2018-11-29T08:00:05.991Z,0.00
2018-11-29T08:01:05.967Z,0.00
2018-11-29T08:02:06.187Z,0.00
2018-11-29T08:03:05.929Z,0.00
2018-11-29T08:04:05.883Z,0.00
2018-11-29T08:05:05.847Z,0.00
2018-11-29T08:06:05.855Z,0.00
2018-11-29T08:07:05.935Z,0.00
2018-11-29T08:08:05.782Z,0.00
2018-11-29T08:09:05.753Z,0.00
2018-11-29T08:10:05.741Z,0.00
2018-11-29T08:11:05.728Z,0.00
2018-11-29T08:12:05.780Z,0.00
2018-11-29T08:13:05.707Z,0.00
2018-11-29T08:14:05.647Z,0.00
2018-11-29T08:15:05.626Z,0.00
2018-11-29T08:16:05.603Z,0.00
2018-11-29T08:19:05.622Z,0.00
2018-11-29T08:20:05.484Z,0.00
2018-11-29T08:21:05.473Z,0.00
2018-11-29T08:22:05.500Z,0.00
2018-11-29T08:23:05.414Z,0.00
2018-11-29T08:24:05.369Z,0.00
2018-11-29T08:25:05.437Z,0.00
2018-11-29T08:26:05.323Z,0.00
2018-11-29T08:27:05.288Z,0.00
2018-11-29T08:28:05.275Z,0.00
2018-11-29T08:29:05.284Z,0.00
2018-11-29T08:30:05.224Z,0.00
2018-11-29T08:31:05.361Z,0.00
2018-11-29T08:32:05.184Z,0.00
2018-11-29T08:33:05.136Z,0.00
2018-11-29T08:34:05.122Z,0.00
2018-11-29T08:35:05.096Z,0.00
2018-11-29T08:36:05.262Z,0.00
2018-11-29T08:37:05.056Z,0.00
2018-11-29T08:38:05.038Z,0.00
2018-11-29T08:39:04.979Z,0.00
2018-11-29T08:40:04.951Z,0.00
2018-11-29T08:41:05.031Z,0.00
2018-11-29T08:42:04.917Z,0.00
2018-11-29T08:43:04.880Z,0.00
2018-11-29T08:44:04.861Z,0.00
2018-11-29T08:45:04.822Z,0.00
2018-11-29T08:46:04.912Z,0.00
2018-11-29T08:47:04.831Z,0.00
2018-11-29T08:48:04.779Z,0.00
2018-11-29T08:49:04.736Z,0.00
2018-11-29T08:50:04.704Z,0.00
2018-11-29T08:51:04.791Z,0.00
2018-11-29T08:52:04.646Z,0.00
2018-11-29T08:53:04.614Z,0.00
2018-11-29T08:54:04.683Z,0.00
2018-11-29T08:55:04.563Z,0.00
2018-11-29T08:56:04.559Z,0.00
2018-11-29T08:57:04.877Z,0.00
2018-11-29T08:58:04.496Z,0.00
2018-11-29T08:59:04.468Z,0.00
2018-11-29T09:00:04.453Z,0.00
2018-11-29T09:01:04.435Z,0.00
2018-11-29T09:02:04.397Z,0.00
2018-11-29T09:03:04.483Z,0.00
2018-11-29T09:04:04.334Z,0.00
2018-11-29T09:05:04.313Z,0.00
2018-11-29T09:06:04.278Z,0.00
2018-11-29T09:07:04.262Z,0.00
2018-11-29T09:08:04.244Z,0.00
2018-11-29T09:09:04.307Z,0.00
2018-11-29T09:10:04.225Z,0.00
2018-11-29T09:11:04.157Z,0.00
2018-11-29T09:12:04.182Z,0.00
2018-11-29T09:13:04.100Z,0.00
2018-11-29T09:14:04.188Z,0.00
2018-11-29T09:15:04.058Z,0.00
2018-11-29T09:16:04.033Z,0.00
2018-11-29T09:17:04.014Z,0.00
2018-11-29T09:18:03.978Z,0.00
2018-11-29T09:19:04.107Z,0.00
2018-11-29T09:20:03.920Z,0.00
2018-11-29T09:21:03.918Z,0.00
2018-11-29T09:22:03.886Z,0.00
2018-11-29T09:23:03.866Z,0.00
2018-11-29T09:24:03.914Z,0.00
2018-11-29T09:25:03.804Z,0.00
2018-11-29T09:26:03.753Z,0.00
2018-11-29T09:27:03.762Z,0.00
2018-11-29T09:28:03.729Z,0.00
2018-11-29T09:29:03.790Z,0.00
2018-11-29T09:30:03.672Z,0.00
2018-11-29T09:31:03.675Z,0.00
2018-11-29T09:32:03.632Z,0.00
2018-11-29T09:33:03.584Z,0.00
2018-11-29T09:34:03.668Z,0.00
2018-11-29T09:35:03.638Z,0.00
2018-11-29T09:36:03.523Z,0.00
2018-11-29T09:37:03.489Z,0.00
2018-11-29T09:38:03.456Z,0.00
2018-11-29T09:39:03.428Z,0.00
2018-11-29T09:40:03.407Z,0.00
2018-11-29T09:41:03.537Z,0.00
2018-11-29T09:42:03.375Z,0.00
2018-11-29T09:43:03.344Z,0.00
2018-11-29T09:44:03.327Z,0.00
2018-11-29T09:45:03.271Z,0.00
2018-11-29T09:46:03.256Z,0.00
2018-11-29T09:47:03.325Z,0.00
2018-11-29T09:48:03.209Z,0.00
2018-11-29T09:49:03.195Z,0.00
2018-11-29T09:50:03.191Z,0.00
2018-11-29T09:51:03.149Z,0.00
2018-11-29T09:52:03.216Z,0.00
2018-11-29T09:53:03.066Z,0.00
2018-11-29T09:54:03.067Z,0.00
2018-11-29T09:55:03.048Z,0.00
2018-11-29T09:56:02.993Z,0.00
2018-11-29T09:57:03.070Z,0.00
2018-11-29T09:58:02.937Z,0.00
2018-11-29T09:59:02.939Z,0.00
2018-11-29T10:00:02.894Z,0.00
2018-11-29T10:01:02.869Z,0.00
2018-11-29T10:02:02.953Z,0.00
2018-11-29T10:03:02.819Z,0.00
2018-11-29T10:04:02.786Z,0.00
2018-11-29T10:05:02.789Z,0.00
2018-11-29T10:06:02.729Z,0.00
2018-11-29T10:07:02.730Z,0.00
2018-11-29T10:08:02.822Z,0.00
2018-11-29T10:09:02.722Z,0.00
2018-11-29T10:10:02.695Z,0.00
2018-11-29T10:11:02.615Z,0.00
2018-11-29T10:12:02.648Z,0.00
2018-11-29T10:13:02.641Z,0.00
2018-11-29T10:14:02.543Z,0.00
2018-11-29T10:15:02.513Z,0.00
2018-11-29T10:16:02.493Z,0.00
2018-11-29T10:17:02.455Z,0.00
2018-11-29T10:18:02.488Z,0.00
2018-11-29T10:19:02.497Z,0.00
2018-11-29T10:20:02.374Z,0.00
2018-11-29T10:21:02.356Z,0.00
2018-11-29T10:22:02.324Z,0.00
2018-11-29T10:23:02.307Z,0.00
2018-11-29T10:24:02.305Z,0.00
2018-11-29T10:25:02.328Z,0.00
2018-11-29T10:26:02.211Z,0.00
2018-11-29T10:27:02.203Z,0.00
2018-11-29T10:28:02.166Z,0.00
2018-11-29T10:29:02.127Z,0.00
2018-11-29T10:30:02.201Z,0.00
2018-11-29T10:31:02.088Z,0.00
2018-11-29T10:32:02.058Z,0.00
2018-11-29T10:33:02.029Z,0.00
2018-11-29T10:34:02.012Z,0.00
2018-11-29T10:35:02.104Z,0.00
2018-11-29T10:36:01.968Z,0.00
2018-11-29T10:37:01.926Z,0.00
2018-11-29T10:38:01.912Z,0.00
2018-11-29T10:39:01.919Z,0.00
2018-11-29T10:40:02.034Z,0.00
2018-11-29T10:41:01.813Z,0.00
2018-11-29T10:42:01.791Z,0.00
2018-11-29T10:43:01.767Z,0.00
2018-11-29T10:44:01.752Z,0.00
2018-11-29T10:45:01.788Z,0.00
2018-11-29T10:46:01.786Z,0.00
2018-11-29T10:47:01.673Z,0.00
2018-11-29T10:48:01.655Z,0.00
2018-11-29T10:49:01.732Z,0.00
2018-11-29T10:50:01.615Z,0.00
2018-11-29T10:51:01.667Z,0.00
2018-11-29T10:52:01.553Z,0.00
2018-11-29T10:53:01.529Z,0.00
2018-11-29T10:54:01.497Z,0.00
2018-11-29T10:55:01.483Z,0.00
2018-11-29T10:56:01.430Z,0.00
2018-11-29T10:57:01.504Z,0.00
2018-11-29T10:58:01.384Z,0.00
2018-11-29T11:04:01.339Z,0.00
2018-11-29T11:05:01.194Z,0.00
2018-11-29T11:06:01.168Z,0.00
2018-11-29T11:07:01.163Z,0.00
2018-11-29T11:08:07.822Z,0.00
2018-11-29T11:09:01.246Z,0.00
2018-11-29T11:10:01.097Z,0.00
2018-11-29T11:11:01.037Z,0.00
2018-11-29T11:12:01.037Z,0.00
2018-11-29T11:13:01.007Z,0.00
2018-11-29T11:14:01.065Z,0.00
2018-11-29T11:15:00.932Z,0.00
2018-11-29T11:16:00.938Z,0.00
2018-11-29T11:17:00.917Z,0.00
2018-11-29T11:18:00.868Z,0.00
2018-11-29T11:19:00.858Z,0.00
2018-11-29T11:20:00.901Z,0.00
2018-11-29T11:21:00.786Z,0.00
2018-11-29T11:22:00.769Z,0.00
2018-11-29T11:23:00.724Z,0.00
2018-11-29T11:24:00.726Z,0.00
2018-11-29T11:25:00.795Z,0.00
2018-11-29T11:26:00.701Z,0.00
2018-11-29T11:27:00.626Z,0.00
2018-11-29T11:28:00.618Z,0.00
2018-11-29T11:29:00.621Z,0.00
2018-11-29T11:30:00.840Z,0.00
2018-11-29T11:31:00.514Z,4.00
2018-11-29T11:32:00.500Z,4.00
2018-11-29T11:33:00.476Z,0.00
2018-11-29T11:34:00.483Z,0.00
2018-11-29T11:35:00.500Z,4.00
2018-11-29T11:36:00.488Z,0.00
2018-11-29T11:37:00.369Z,4.00
2018-11-29T11:38:00.348Z,4.00
2018-11-29T11:39:00.324Z,4.00
2018-11-29T11:40:00.298Z,4.00
2018-11-29T11:41:00.291Z,8.00
2018-11-29T11:42:00.347Z,4.00
2018-11-29T11:43:05.038Z,8.00
2018-11-29T11:44:00.206Z,8.00
2018-11-29T11:45:00.191Z,8.00
2018-11-29T11:46:00.181Z,8.00
2018-11-29T11:47:00.217Z,12.00
2018-11-29T11:48:03.161Z,16.00
2018-11-29T11:49:00.202Z,12.00
2018-11-29T11:50:00.058Z,16.00
2018-11-29T11:51:00.006Z,16.00
2018-11-29T11:51:59.970Z,20.00
2018-11-29T11:53:00.088Z,20.00
2018-11-29T11:53:59.919Z,24.00
2018-11-29T11:54:59.902Z,28.00
2018-11-29T11:55:59.942Z,28.00
2018-11-29T11:56:59.902Z,32.00
2018-11-29T11:57:59.909Z,36.00
2018-11-29T11:58:59.899Z,40.00
2018-11-29T12:00:00.236Z,40.00
2018-11-29T12:00:59.745Z,44.00
2018-11-29T12:01:59.753Z,48.00
2018-11-29T12:02:59.731Z,52.00
2018-11-29T12:04:00.004Z,52.00
2018-11-29T12:04:59.646Z,56.00
2018-11-29T12:05:59.633Z,60.00
2018-11-29T12:06:59.662Z,64.00
2018-11-29T12:07:59.593Z,64.00
2018-11-29T12:08:59.645Z,68.00
2018-11-29T12:09:59.594Z,68.00
2018-11-29T12:10:59.508Z,72.00
2018-11-29T12:11:59.566Z,72.00
2018-11-29T12:12:59.483Z,72.00
2018-11-29T12:13:59.434Z,76.00
2018-11-29T12:14:59.569Z,80.00
2018-11-29T12:15:59.388Z,80.00
2018-11-29T12:16:59.365Z,80.00
2018-11-29T12:17:59.329Z,84.00
2018-11-29T12:19:02.226Z,88.00
2018-11-29T12:19:59.268Z,88.00
2018-11-29T12:20:59.358Z,92.00
2018-11-29T12:21:59.215Z,92.00
2018-11-29T12:22:59.296Z,96.00
2018-11-29T12:23:59.153Z,100.00
2018-11-29T12:24:59.143Z,108.00
2018-11-29T12:25:59.293Z,116.00
2018-11-29T12:26:59.210Z,116.00
2018-11-29T12:27:59.091Z,124.00
2018-11-29T12:28:59.080Z,128.00
2018-11-29T12:29:59.017Z,132.00
2018-11-29T12:30:58.970Z,136.00
2018-11-29T12:31:59.043Z,140.00
2018-11-29T12:32:58.923Z,144.00
2018-11-29T12:33:58.913Z,148.00
2018-11-29T12:34:58.863Z,152.00
2018-11-29T12:35:58.864Z,152.00
2018-11-29T12:36:58.964Z,160.00
2018-11-29T12:37:58.805Z,160.00
2018-11-29T12:38:58.772Z,156.00
2018-11-29T12:39:58.735Z,156.00
2018-11-29T12:40:58.741Z,156.00
2018-11-29T12:41:58.815Z,160.00
2018-11-29T12:42:58.692Z,164.00
2018-11-29T12:43:58.830Z,168.00
2018-11-29T12:44:59.184Z,172.00
2018-11-29T12:45:58.605Z,180.00
2018-11-29T12:46:58.713Z,184.00
2018-11-29T12:47:58.550Z,188.00
2018-11-29T12:48:58.559Z,196.00
2018-11-29T12:49:58.503Z,200.00
2018-11-29T12:50:58.491Z,208.00
2018-11-29T12:51:58.433Z,208.00
2018-11-29T12:52:58.506Z,216.00
2018-11-29T12:53:58.411Z,220.00
2018-11-29T12:54:58.372Z,220.00
2018-11-29T12:55:58.380Z,224.00
2018-11-29T12:56:58.330Z,220.00
2018-11-29T12:58:05.299Z,228.00
2018-11-29T12:58:58.361Z,228.00
2018-11-29T12:59:58.228Z,232.00
2018-11-29T13:00:58.221Z,256.00
2018-11-29T13:01:58.178Z,260.00
2018-11-29T13:02:58.151Z,264.00
2018-11-29T13:03:58.238Z,268.00
2018-11-29T13:04:58.206Z,276.00
2018-11-29T13:05:58.091Z,288.00
2018-11-29T13:06:58.041Z,304.00
2018-11-29T13:07:58.025Z,320.00
2018-11-29T13:08:58.011Z,328.00
2018-11-29T13:09:58.119Z,344.00
2018-11-29T13:10:57.942Z,352.00
2018-11-29T13:11:57.939Z,364.00
2018-11-29T13:12:57.897Z,372.00
2018-11-29T13:13:57.930Z,380.00
2018-11-29T13:14:57.966Z,380.00
2018-11-29T13:15:57.811Z,392.00
2018-11-29T13:16:57.809Z,396.00
2018-11-29T13:17:57.779Z,408.00
2018-11-29T13:18:57.761Z,420.00
2018-11-29T13:19:57.822Z,424.00